sensor_id;sensor_type;location;lat;lon;timestamp;temperature;humidity
48752;DHT22;34544;48.836;9.174;2023-06-05T00:01:14;14.20;99.90
48752;DHT22;34544;48.836;9.174;2023-06-05T00:03:39;14.20;99.90
48752;DHT22;34544;48.836;9.174;2023-06-05T00:06:05;14.20;99.90
48752;DHT22;34544;48.836;9.174;2023-06-05T00:08:33;14.10;99.90
48752;DHT22;34544;48.836;9.174;2023-06-05T00:10:59;14.10;99.90
48752;DHT22;34544;48.836;9.174;2023-06-05T00:13:25;14.00;99.90
48752;DHT22;34544;48.836;9.174;2023-06-05T00:15:50;14.00;99.90
48752;DHT22;34544;48.836;9.174;2023-06-05T00:18:17;14.00;99.90
48752;DHT22;34544;48.836;9.174;2023-06-05T00:20:43;13.90;99.90
48752;DHT22;34544;48.836;9.174;2023-06-05T00:23:09;13.90;99.90
48752;DHT22;34544;48.836;9.174;2023-06-05T00:25:37;13.90;99.90
48752;DHT22;34544;48.836;9.174;2023-06-05T00:28:03;13.80;99.90
48752;DHT22;34544;48.836;9.174;2023-06-05T00:30:28;13.80;99.90
48752;DHT22;34544;48.836;9.174;2023-06-05T00:32:55;13.70;99.90
48752;DHT22;34544;48.836;9.174;2023-06-05T00:35:21;13.70;99.90
48752;DHT22;34544;48.836;9.174;2023-06-05T00:37:46;13.70;99.90
48752;DHT22;34544;48.836;9.174;2023-06-05T00:40:12;13.60;99.90
48752;DHT22;34544;48.836;9.174;2023-06-05T00:42:38;13.60;99.90
48752;DHT22;34544;48.836;9.174;2023-06-05T00:45:06;13.60;99.90
48752;DHT22;34544;48.836;9.174;2023-06-05T00:47:32;13.50;99.90
48752;DHT22;34544;48.836;9.174;2023-06-05T00:49:58;13.50;99.90
48752;DHT22;34544;48.836;9.174;2023-06-05T00:52:26;13.50;99.90
48752;DHT22;34544;48.836;9.174;2023-06-05T00:54:52;13.40;99.90
48752;DHT22;34544;48.836;9.174;2023-06-05T00:57:18;13.40;99.90
48752;DHT22;34544;48.836;9.174;2023-06-05T00:59:44;13.40;99.90
48752;DHT22;34544;48.836;9.174;2023-06-05T01:02:12;13.30;99.90
48752;DHT22;34544;48.836;9.174;2023-06-05T01:04:42;13.30;99.90
48752;DHT22;34544;48.836;9.174;2023-06-05T01:07:13;13.30;99.90
48752;DHT22;34544;48.836;9.174;2023-06-05T01:09:40;13.20;99.90
48752;DHT22;34544;48.836;9.174;2023-06-05T01:14:58;13.20;99.90
48752;DHT22;34544;48.836;9.174;2023-06-05T01:17:27;13.20;99.90
48752;DHT22;34544;48.836;9.174;2023-06-05T01:19:55;13.10;99.90
48752;DHT22;34544;48.836;9.174;2023-06-05T01:22:21;13.10;99.90
48752;DHT22;34544;48.836;9.174;2023-06-05T01:24:50;13.10;99.90
48752;DHT22;34544;48.836;9.174;2023-06-05T01:27:30;13.00;99.90
48752;DHT22;34544;48.836;9.174;2023-06-05T01:35:07;13.00;99.90
48752;DHT22;34544;48.836;9.174;2023-06-05T01:37:37;12.90;99.90
48752;DHT22;34544;48.836;9.174;2023-06-05T01:40:10;12.90;99.90
48752;DHT22;34544;48.836;9.174;2023-06-05T01:42:38;12.90;99.90
48752;DHT22;34544;48.836;9.174;2023-06-05T01:45:06;12.90;99.90
48752;DHT22;34544;48.836;9.174;2023-06-05T01:47:34;12.90;99.90
48752;DHT22;34544;48.836;9.174;2023-06-05T01:50:00;12.80;99.90
48752;DHT22;34544;48.836;9.174;2023-06-05T01:52:26;12.80;99.90
48752;DHT22;34544;48.836;9.174;2023-06-05T01:54:52;12.80;99.90
48752;DHT22;34544;48.836;9.174;2023-06-05T01:57:18;12.70;99.90
48752;DHT22;34544;48.836;9.174;2023-06-05T01:59:43;12.70;99.90
48752;DHT22;34544;48.836;9.174;2023-06-05T02:02:11;12.70;99.90
48752;DHT22;34544;48.836;9.174;2023-06-05T02:04:39;12.70;99.90
48752;DHT22;34544;48.836;9.174;2023-06-05T02:07:04;12.60;99.90
48752;DHT22;34544;48.836;9.174;2023-06-05T02:09:31;12.60;99.90
48752;DHT22;34544;48.836;9.174;2023-06-05T02:11:59;12.50;99.90
48752;DHT22;34544;48.836;9.174;2023-06-05T02:14:30;12.50;99.90
48752;DHT22;34544;48.836;9.174;2023-06-05T02:16:57;12.50;99.90
48752;DHT22;34544;48.836;9.174;2023-06-05T02:19:24;12.50;99.90
48752;DHT22;34544;48.836;9.174;2023-06-05T02:21:50;12.50;99.90
48752;DHT22;34544;48.836;9.174;2023-06-05T02:24:19;12.40;99.90
48752;DHT22;34544;48.836;9.174;2023-06-05T02:26:45;12.40;99.90
48752;DHT22;34544;48.836;9.174;2023-06-05T02:29:10;12.40;99.90
48752;DHT22;34544;48.836;9.174;2023-06-05T02:31:36;12.30;99.90
48752;DHT22;34544;48.836;9.174;2023-06-05T02:34:02;12.30;99.90
48752;DHT22;34544;48.836;9.174;2023-06-05T02:36:28;12.20;99.90
48752;DHT22;34544;48.836;9.174;2023-06-05T02:38:59;12.20;99.90
48752;DHT22;34544;48.836;9.174;2023-06-05T02:41:25;12.20;99.90
48752;DHT22;34544;48.836;9.174;2023-06-05T02:43:53;12.20;99.90
48752;DHT22;34544;48.836;9.174;2023-06-05T02:46:20;12.10;99.90
48752;DHT22;34544;48.836;9.174;2023-06-05T02:48:47;12.10;99.90
48752;DHT22;34544;48.836;9.174;2023-06-05T02:51:13;12.10;99.90
48752;DHT22;34544;48.836;9.174;2023-06-05T02:53:42;12.10;99.90
48752;DHT22;34544;48.836;9.174;2023-06-05T02:56:08;12.10;99.90
48752;DHT22;34544;48.836;9.174;2023-06-05T02:58:34;12.00;99.90
48752;DHT22;34544;48.836;9.174;2023-06-05T03:01:00;12.00;99.90
48752;DHT22;34544;48.836;9.174;2023-06-05T03:03:32;12.00;99.90
48752;DHT22;34544;48.836;9.174;2023-06-05T03:06:00;12.00;99.90
48752;DHT22;34544;48.836;9.174;2023-06-05T03:08:34;12.00;99.90
48752;DHT22;34544;48.836;9.174;2023-06-05T03:11:01;12.00;99.90
48752;DHT22;34544;48.836;9.174;2023-06-05T03:13:27;11.90;99.90
48752;DHT22;34544;48.836;9.174;2023-06-05T03:15:55;11.90;99.90
48752;DHT22;34544;48.836;9.174;2023-06-05T03:18:24;11.90;99.90
48752;DHT22;34544;48.836;9.174;2023-06-05T03:20:56;11.90;99.90
48752;DHT22;34544;48.836;9.174;2023-06-05T03:23:26;11.80;99.90
48752;DHT22;34544;48.836;9.174;2023-06-05T03:25:59;11.80;99.90
48752;DHT22;34544;48.836;9.174;2023-06-05T03:28:25;11.80;99.90
48752;DHT22;34544;48.836;9.174;2023-06-05T03:30:55;11.80;99.90
48752;DHT22;34544;48.836;9.174;2023-06-05T03:33:24;11.80;99.90
48752;DHT22;34544;48.836;9.174;2023-06-05T03:35:52;11.80;99.90
48752;DHT22;34544;48.836;9.174;2023-06-05T03:38:22;11.80;99.90
48752;DHT22;34544;48.836;9.174;2023-06-05T03:40:48;11.80;99.90
48752;DHT22;34544;48.836;9.174;2023-06-05T03:43:17;11.80;99.90
48752;DHT22;34544;48.836;9.174;2023-06-05T03:45:43;11.80;99.90
48752;DHT22;34544;48.836;9.174;2023-06-05T03:48:10;11.80;99.90
48752;DHT22;34544;48.836;9.174;2023-06-05T03:50:39;11.80;99.90
48752;DHT22;34544;48.836;9.174;2023-06-05T03:53:06;11.80;99.90
48752;DHT22;34544;48.836;9.174;2023-06-05T03:55:34;11.80;99.90
48752;DHT22;34544;48.836;9.174;2023-06-05T03:58:25;11.80;99.90
48752;DHT22;34544;48.836;9.174;2023-06-05T04:00:53;11.90;99.90
48752;DHT22;34544;48.836;9.174;2023-06-05T04:03:19;11.90;99.90
48752;DHT22;34544;48.836;9.174;2023-06-05T04:05:49;12.00;99.90
48752;DHT22;34544;48.836;9.174;2023-06-05T04:08:15;12.00;99.90
48752;DHT22;34544;48.836;9.174;2023-06-05T04:10:40;12.00;99.90
48752;DHT22;34544;48.836;9.174;2023-06-05T04:13:06;12.00;99.90
48752;DHT22;34544;48.836;9.174;2023-06-05T04:15:34;12.00;99.90
48752;DHT22;34544;48.836;9.174;2023-06-05T04:18:01;12.10;99.90
48752;DHT22;34544;48.836;9.174;2023-06-05T04:20:28;12.10;99.90
48752;DHT22;34544;48.836;9.174;2023-06-05T04:22:54;12.20;99.90
48752;DHT22;34544;48.836;9.174;2023-06-05T04:25:20;12.20;99.90
48752;DHT22;34544;48.836;9.174;2023-06-05T04:27:49;12.30;99.90
48752;DHT22;34544;48.836;9.174;2023-06-05T04:30:17;12.30;99.90
48752;DHT22;34544;48.836;9.174;2023-06-05T04:32:43;12.30;99.90
48752;DHT22;34544;48.836;9.174;2023-06-05T04:35:19;12.40;99.90
48752;DHT22;34544;48.836;9.174;2023-06-05T04:37:44;12.50;99.90
48752;DHT22;34544;48.836;9.174;2023-06-05T04:40:12;12.60;99.90
48752;DHT22;34544;48.836;9.174;2023-06-05T04:42:39;12.70;99.90
48752;DHT22;34544;48.836;9.174;2023-06-05T04:45:06;12.70;99.90
48752;DHT22;34544;48.836;9.174;2023-06-05T04:47:36;12.80;99.90
48752;DHT22;34544;48.836;9.174;2023-06-05T04:50:04;12.90;99.90
48752;DHT22;34544;48.836;9.174;2023-06-05T04:52:31;13.00;99.90
48752;DHT22;34544;48.836;9.174;2023-06-05T04:54:58;13.10;99.90
48752;DHT22;34544;48.836;9.174;2023-06-05T04:59:55;13.40;99.90
48752;DHT22;34544;48.836;9.174;2023-06-05T05:02:22;13.50;99.90
48752;DHT22;34544;48.836;9.174;2023-06-05T05:04:48;13.60;99.90
48752;DHT22;34544;48.836;9.174;2023-06-05T05:07:15;13.70;99.90
48752;DHT22;34544;48.836;9.174;2023-06-05T05:09:43;13.90;99.90
48752;DHT22;34544;48.836;9.174;2023-06-05T05:12:10;14.00;99.90
48752;DHT22;34544;48.836;9.174;2023-06-05T05:14:36;14.10;99.90
48752;DHT22;34544;48.836;9.174;2023-06-05T05:17:03;14.20;99.90
48752;DHT22;34544;48.836;9.174;2023-06-05T05:19:30;14.30;99.90
48752;DHT22;34544;48.836;9.174;2023-06-05T05:21:58;14.50;99.90
48752;DHT22;34544;48.836;9.174;2023-06-05T05:24:24;14.60;99.90
48752;DHT22;34544;48.836;9.174;2023-06-05T05:26:51;14.70;99.90
48752;DHT22;34544;48.836;9.174;2023-06-05T05:29:17;14.80;99.90
48752;DHT22;34544;48.836;9.174;2023-06-05T05:31:44;14.90;99.90
48752;DHT22;34544;48.836;9.174;2023-06-05T05:34:10;15.00;99.90
48752;DHT22;34544;48.836;9.174;2023-06-05T05:36:36;15.10;99.90
48752;DHT22;34544;48.836;9.174;2023-06-05T05:39:03;15.20;99.90
48752;DHT22;34544;48.836;9.174;2023-06-05T05:41:29;15.30;99.90
48752;DHT22;34544;48.836;9.174;2023-06-05T05:43:56;15.40;99.90
48752;DHT22;34544;48.836;9.174;2023-06-05T05:48:47;15.60;99.90
48752;DHT22;34544;48.836;9.174;2023-06-05T05:51:13;15.70;99.90
48752;DHT22;34544;48.836;9.174;2023-06-05T05:53:39;15.70;99.90
48752;DHT22;34544;48.836;9.174;2023-06-05T05:56:04;15.80;99.90
48752;DHT22;34544;48.836;9.174;2023-06-05T05:58:30;16.00;99.90
48752;DHT22;34544;48.836;9.174;2023-06-05T06:00:57;16.00;99.90
48752;DHT22;34544;48.836;9.174;2023-06-05T06:03:25;16.10;99.90
48752;DHT22;34544;48.836;9.174;2023-06-05T06:08:18;16.30;99.90
48752;DHT22;34544;48.836;9.174;2023-06-05T06:10:43;16.30;99.90
48752;DHT22;34544;48.836;9.174;2023-06-05T06:13:09;16.40;99.90
48752;DHT22;34544;48.836;9.174;2023-06-05T06:15:35;16.50;99.90
48752;DHT22;34544;48.836;9.174;2023-06-05T06:18:04;16.50;99.90
48752;DHT22;34544;48.836;9.174;2023-06-05T06:20:31;16.60;99.90
48752;DHT22;34544;48.836;9.174;2023-06-05T06:22:57;16.70;99.90
48752;DHT22;34544;48.836;9.174;2023-06-05T06:25:22;16.80;99.90
48752;DHT22;34544;48.836;9.174;2023-06-05T06:27:51;16.90;99.90
48752;DHT22;34544;48.836;9.174;2023-06-05T06:30:19;17.00;99.90
48752;DHT22;34544;48.836;9.174;2023-06-05T06:32:45;17.10;99.90
48752;DHT22;34544;48.836;9.174;2023-06-05T06:35:11;17.30;99.90
48752;DHT22;34544;48.836;9.174;2023-06-05T06:37:39;17.30;99.90
48752;DHT22;34544;48.836;9.174;2023-06-05T06:40:06;17.40;99.90
48752;DHT22;34544;48.836;9.174;2023-06-05T06:42:37;17.50;99.90
48752;DHT22;34544;48.836;9.174;2023-06-05T06:45:21;17.60;99.90
48752;DHT22;34544;48.836;9.174;2023-06-05T06:47:47;17.70;99.90
48752;DHT22;34544;48.836;9.174;2023-06-05T06:50:13;17.90;99.90
48752;DHT22;34544;48.836;9.174;2023-06-05T06:52:40;18.00;99.90
48752;DHT22;34544;48.836;9.174;2023-06-05T06:55:06;18.00;99.90
48752;DHT22;34544;48.836;9.174;2023-06-05T06:57:32;18.10;99.90
48752;DHT22;34544;48.836;9.174;2023-06-05T06:59:57;18.30;99.90
48752;DHT22;34544;48.836;9.174;2023-06-05T07:02:24;18.50;99.90
48752;DHT22;34544;48.836;9.174;2023-06-05T07:04:51;18.60;99.20
48752;DHT22;34544;48.836;9.174;2023-06-05T07:07:19;18.80;98.70
48752;DHT22;34544;48.836;9.174;2023-06-05T07:09:49;19.10;99.60
48752;DHT22;34544;48.836;9.174;2023-06-05T07:12:17;19.30;99.00
48752;DHT22;34544;48.836;9.174;2023-06-05T07:14:45;19.50;99.30
48752;DHT22;34544;48.836;9.174;2023-06-05T07:17:10;19.80;98.50
48752;DHT22;34544;48.836;9.174;2023-06-05T07:19:36;20.00;98.20
48752;DHT22;34544;48.836;9.174;2023-06-05T07:22:03;20.30;98.20
48752;DHT22;34544;48.836;9.174;2023-06-05T07:24:33;20.50;97.50
48752;DHT22;34544;48.836;9.174;2023-06-05T07:27:01;20.80;97.30
48752;DHT22;34544;48.836;9.174;2023-06-05T07:29:27;21.10;97.10
48752;DHT22;34544;48.836;9.174;2023-06-05T07:31:55;21.30;95.30
48752;DHT22;34544;48.836;9.174;2023-06-05T07:34:22;21.50;96.10
48752;DHT22;34544;48.836;9.174;2023-06-05T07:36:49;21.70;95.90
48752;DHT22;34544;48.836;9.174;2023-06-05T07:39:17;21.90;95.70
48752;DHT22;34544;48.836;9.174;2023-06-05T07:41:43;22.10;95.00
48752;DHT22;34544;48.836;9.174;2023-06-05T07:44:14;22.20;94.90
48752;DHT22;34544;48.836;9.174;2023-06-05T07:46:41;22.40;94.60
48752;DHT22;34544;48.836;9.174;2023-06-05T07:49:07;22.50;93.90
48752;DHT22;34544;48.836;9.174;2023-06-05T07:51:35;22.60;94.70
48752;DHT22;34544;48.836;9.174;2023-06-05T07:54:09;22.80;94.40
48752;DHT22;34544;48.836;9.174;2023-06-05T07:56:35;23.00;94.10
48752;DHT22;34544;48.836;9.174;2023-06-05T07:59:02;23.20;94.00
48752;DHT22;34544;48.836;9.174;2023-06-05T08:01:29;23.30;93.00
48752;DHT22;34544;48.836;9.174;2023-06-05T08:03:56;23.40;93.80
48752;DHT22;34544;48.836;9.174;2023-06-05T08:06:23;23.60;94.00
48752;DHT22;34544;48.836;9.174;2023-06-05T08:08:50;23.80;93.80
48752;DHT22;34544;48.836;9.174;2023-06-05T08:11:15;24.00;93.90
48752;DHT22;34544;48.836;9.174;2023-06-05T08:13:41;24.20;93.30
48752;DHT22;34544;48.836;9.174;2023-06-05T08:16:07;24.40;93.50
48752;DHT22;34544;48.836;9.174;2023-06-05T08:18:33;24.60;93.60
48752;DHT22;34544;48.836;9.174;2023-06-05T08:20:59;24.80;93.40
48752;DHT22;34544;48.836;9.174;2023-06-05T08:23:25;25.00;99.90
48752;DHT22;34544;48.836;9.174;2023-06-05T08:25:51;25.20;97.50
48752;DHT22;34544;48.836;9.174;2023-06-05T08:28:17;25.40;92.90
48752;DHT22;34544;48.836;9.174;2023-06-05T08:33:10;25.50;99.90
48752;DHT22;34544;48.836;9.174;2023-06-05T08:35:36;25.60;99.90
48752;DHT22;34544;48.836;9.174;2023-06-05T08:38:03;25.10;99.90
48752;DHT22;34544;48.836;9.174;2023-06-05T08:40:29;25.10;99.90
48752;DHT22;34544;48.836;9.174;2023-06-05T08:42:55;25.10;99.90
48752;DHT22;34544;48.836;9.174;2023-06-05T08:45:21;24.80;99.90
48752;DHT22;34544;48.836;9.174;2023-06-05T08:47:50;25.40;99.90
48752;DHT22;34544;48.836;9.174;2023-06-05T08:50:16;25.30;99.90
48752;DHT22;34544;48.836;9.174;2023-06-05T08:52:43;25.80;93.00
48752;DHT22;34544;48.836;9.174;2023-06-05T08:55:10;26.20;92.90
48752;DHT22;34544;48.836;9.174;2023-06-05T08:57:38;26.60;92.40
48752;DHT22;34544;48.836;9.174;2023-06-05T09:00:07;26.90;92.90
48752;DHT22;34544;48.836;9.174;2023-06-05T09:02:39;26.90;91.50
48752;DHT22;34544;48.836;9.174;2023-06-05T09:05:06;26.90;90.80
48752;DHT22;34544;48.836;9.174;2023-06-05T09:07:33;27.00;91.80
48752;DHT22;34544;48.836;9.174;2023-06-05T09:09:58;27.20;91.50
48752;DHT22;34544;48.836;9.174;2023-06-05T09:12:24;27.40;91.70
48752;DHT22;34544;48.836;9.174;2023-06-05T09:14:51;27.70;91.30
48752;DHT22;34544;48.836;9.174;2023-06-05T09:17:17;28.00;91.30
48752;DHT22;34544;48.836;9.174;2023-06-05T09:19:44;28.10;90.60
48752;DHT22;34544;48.836;9.174;2023-06-05T09:22:12;28.30;90.10
48752;DHT22;34544;48.836;9.174;2023-06-05T09:24:39;28.40;90.00
48752;DHT22;34544;48.836;9.174;2023-06-05T09:27:16;28.40;90.80
48752;DHT22;34544;48.836;9.174;2023-06-05T09:29:42;28.60;90.70
48752;DHT22;34544;48.836;9.174;2023-06-05T09:32:17;28.90;89.70
48752;DHT22;34544;48.836;9.174;2023-06-05T09:34:43;29.30;89.00
48752;DHT22;34544;48.836;9.174;2023-06-05T09:37:12;29.40;87.50
48752;DHT22;34544;48.836;9.174;2023-06-05T09:39:39;29.40;88.30
48752;DHT22;34544;48.836;9.174;2023-06-05T09:42:06;29.60;88.60
48752;DHT22;34544;48.836;9.174;2023-06-05T09:44:33;29.80;87.70
48752;DHT22;34544;48.836;9.174;2023-06-05T09:47:06;29.90;85.80
48752;DHT22;34544;48.836;9.174;2023-06-05T09:52:06;30.10;87.40
48752;DHT22;34544;48.836;9.174;2023-06-05T09:54:32;30.20;84.80
48752;DHT22;34544;48.836;9.174;2023-06-05T09:57:04;30.20;86.60
48752;DHT22;34544;48.836;9.174;2023-06-05T09:59:32;29.90;85.70
48752;DHT22;34544;48.836;9.174;2023-06-05T10:02:03;29.90;84.00
48752;DHT22;34544;48.836;9.174;2023-06-05T10:04:56;29.70;82.90
48752;DHT22;34544;48.836;9.174;2023-06-05T10:07:24;30.20;84.10
48752;DHT22;34544;48.836;9.174;2023-06-05T10:09:50;30.60;82.30
48752;DHT22;34544;48.836;9.174;2023-06-05T10:12:16;30.80;78.70
48752;DHT22;34544;48.836;9.174;2023-06-05T10:14:43;30.90;78.80
48752;DHT22;34544;48.836;9.174;2023-06-05T10:17:13;31.20;77.40
48752;DHT22;34544;48.836;9.174;2023-06-05T10:19:44;31.40;76.10
48752;DHT22;34544;48.836;9.174;2023-06-05T10:22:11;31.50;78.00
48752;DHT22;34544;48.836;9.174;2023-06-05T10:24:54;31.60;78.10
48752;DHT22;34544;48.836;9.174;2023-06-05T10:27:37;31.70;78.30
48752;DHT22;34544;48.836;9.174;2023-06-05T10:30:25;31.70;76.70
48752;DHT22;34544;48.836;9.174;2023-06-05T10:38:31;32.70;74.00
48752;DHT22;34544;48.836;9.174;2023-06-05T10:41:00;32.80;71.30
48752;DHT22;34544;48.836;9.174;2023-06-05T10:43:45;32.50;73.20
48752;DHT22;34544;48.836;9.174;2023-06-05T10:46:30;32.30;70.00
48752;DHT22;34544;48.836;9.174;2023-06-05T10:49:06;32.40;68.60
48752;DHT22;34544;48.836;9.174;2023-06-05T10:51:48;32.40;67.30
48752;DHT22;34544;48.836;9.174;2023-06-05T11:17:48;33.90;63.30
48752;DHT22;34544;48.836;9.174;2023-06-05T11:30:17;34.40;61.10
48752;DHT22;34544;48.836;9.174;2023-06-05T11:32:43;34.60;64.10
48752;DHT22;34544;48.836;9.174;2023-06-05T11:35:10;34.70;60.50
48752;DHT22;34544;48.836;9.174;2023-06-05T11:37:36;34.90;60.50
48752;DHT22;34544;48.836;9.174;2023-06-05T11:40:06;35.40;60.20
48752;DHT22;34544;48.836;9.174;2023-06-05T11:42:35;35.50;59.90
48752;DHT22;34544;48.836;9.174;2023-06-05T11:45:02;35.50;58.20
48752;DHT22;34544;48.836;9.174;2023-06-05T11:47:28;35.90;58.80
48752;DHT22;34544;48.836;9.174;2023-06-05T11:50:10;36.10;58.20
48752;DHT22;34544;48.836;9.174;2023-06-05T11:52:36;36.20;58.50
48752;DHT22;34544;48.836;9.174;2023-06-05T11:55:16;36.20;58.80
48752;DHT22;34544;48.836;9.174;2023-06-05T11:57:46;36.50;56.80
48752;DHT22;34544;48.836;9.174;2023-06-05T12:00:16;36.60;58.00
48752;DHT22;34544;48.836;9.174;2023-06-05T12:02:48;36.90;67.60
48752;DHT22;34544;48.836;9.174;2023-06-05T12:07:40;37.10;56.10
48752;DHT22;34544;48.836;9.174;2023-06-05T12:10:08;37.00;55.10
48752;DHT22;34544;48.836;9.174;2023-06-05T12:12:34;36.40;56.90
48752;DHT22;34544;48.836;9.174;2023-06-05T12:15:21;36.40;56.20
48752;DHT22;34544;48.836;9.174;2023-06-05T12:17:55;36.80;55.90
48752;DHT22;34544;48.836;9.174;2023-06-05T12:20:21;36.80;55.20
48752;DHT22;34544;48.836;9.174;2023-06-05T12:22:48;36.40;55.90
48752;DHT22;34544;48.836;9.174;2023-06-05T12:25:17;36.40;56.20
48752;DHT22;34544;48.836;9.174;2023-06-05T12:27:43;36.20;55.10
48752;DHT22;34544;48.836;9.174;2023-06-05T12:30:11;35.60;55.50
48752;DHT22;34544;48.836;9.174;2023-06-05T12:32:37;35.00;56.30
48752;DHT22;34544;48.836;9.174;2023-06-05T12:35:05;35.00;57.70
48752;DHT22;34544;48.836;9.174;2023-06-05T12:37:33;35.30;56.00
48752;DHT22;34544;48.836;9.174;2023-06-05T12:40:03;35.50;56.80
48752;DHT22;34544;48.836;9.174;2023-06-05T12:42:36;35.80;56.40
48752;DHT22;34544;48.836;9.174;2023-06-05T12:45:05;36.30;56.20
48752;DHT22;34544;48.836;9.174;2023-06-05T12:47:34;36.50;55.00
48752;DHT22;34544;48.836;9.174;2023-06-05T12:50:00;36.60;55.60
48752;DHT22;34544;48.836;9.174;2023-06-05T12:52:26;36.80;54.80
48752;DHT22;34544;48.836;9.174;2023-06-05T12:54:55;36.80;54.40
48752;DHT22;34544;48.836;9.174;2023-06-05T12:57:22;37.10;55.00
48752;DHT22;34544;48.836;9.174;2023-06-05T12:59:47;37.00;54.20
48752;DHT22;34544;48.836;9.174;2023-06-05T13:02:13;36.80;54.40
48752;DHT22;34544;48.836;9.174;2023-06-05T13:04:39;36.20;55.70
48752;DHT22;34544;48.836;9.174;2023-06-05T13:07:06;36.10;56.20
48752;DHT22;34544;48.836;9.174;2023-06-05T13:09:32;36.00;55.70
48752;DHT22;34544;48.836;9.174;2023-06-05T13:11:58;35.70;55.30
48752;DHT22;34544;48.836;9.174;2023-06-05T13:14:29;35.00;55.90
48752;DHT22;34544;48.836;9.174;2023-06-05T13:19:22;33.40;56.10
48752;DHT22;34544;48.836;9.174;2023-06-05T13:21:48;32.80;57.40
48752;DHT22;34544;48.836;9.174;2023-06-05T13:24:13;32.90;57.60
48752;DHT22;34544;48.836;9.174;2023-06-05T13:26:39;33.50;57.70
48752;DHT22;34544;48.836;9.174;2023-06-05T13:29:04;33.90;57.90
48752;DHT22;34544;48.836;9.174;2023-06-05T13:31:30;34.30;57.10
48752;DHT22;34544;48.836;9.174;2023-06-05T13:33:56;34.40;57.90
48752;DHT22;34544;48.836;9.174;2023-06-05T13:36:22;34.00;58.00
48752;DHT22;34544;48.836;9.174;2023-06-05T13:38:49;33.50;59.80
48752;DHT22;34544;48.836;9.174;2023-06-05T13:41:15;33.50;59.30
48752;DHT22;34544;48.836;9.174;2023-06-05T13:43:40;33.80;59.00
48752;DHT22;34544;48.836;9.174;2023-06-05T13:46:06;34.20;57.60
48752;DHT22;34544;48.836;9.174;2023-06-05T13:48:32;34.70;57.70
48752;DHT22;34544;48.836;9.174;2023-06-05T13:51:00;35.40;57.20
48752;DHT22;34544;48.836;9.174;2023-06-05T13:53:26;36.10;57.40
48752;DHT22;34544;48.836;9.174;2023-06-05T13:55:52;36.60;56.10
48752;DHT22;34544;48.836;9.174;2023-06-05T13:58:18;37.10;56.00
48752;DHT22;34544;48.836;9.174;2023-06-05T14:00:44;37.20;56.60
48752;DHT22;34544;48.836;9.174;2023-06-05T14:03:10;36.70;56.70
48752;DHT22;34544;48.836;9.174;2023-06-05T14:05:36;35.80;56.30
48752;DHT22;34544;48.836;9.174;2023-06-05T14:08:02;34.70;56.80
48752;DHT22;34544;48.836;9.174;2023-06-05T14:10:27;34.00;57.00
48752;DHT22;34544;48.836;9.174;2023-06-05T14:12:53;33.90;59.00
48752;DHT22;34544;48.836;9.174;2023-06-05T14:15:19;33.80;57.40
48752;DHT22;34544;48.836;9.174;2023-06-05T14:17:46;33.90;57.60
48752;DHT22;34544;48.836;9.174;2023-06-05T14:20:12;34.10;57.30
48752;DHT22;34544;48.836;9.174;2023-06-05T14:22:40;34.50;57.00
48752;DHT22;34544;48.836;9.174;2023-06-05T14:25:06;34.90;57.10
48752;DHT22;34544;48.836;9.174;2023-06-05T14:27:32;35.30;56.00
48752;DHT22;34544;48.836;9.174;2023-06-05T14:29:57;35.50;56.50
48752;DHT22;34544;48.836;9.174;2023-06-05T14:32:23;35.80;55.80
48752;DHT22;34544;48.836;9.174;2023-06-05T14:34:49;36.00;56.10
48752;DHT22;34544;48.836;9.174;2023-06-05T14:37:14;36.20;55.00
48752;DHT22;34544;48.836;9.174;2023-06-05T14:39:40;36.30;54.90
48752;DHT22;34544;48.836;9.174;2023-06-05T14:42:06;36.40;55.20
48752;DHT22;34544;48.836;9.174;2023-06-05T14:44:32;36.40;54.70
48752;DHT22;34544;48.836;9.174;2023-06-05T14:46:58;36.60;54.40
48752;DHT22;34544;48.836;9.174;2023-06-05T14:49:24;36.70;54.50
48752;DHT22;34544;48.836;9.174;2023-06-05T14:51:50;36.70;53.70
48752;DHT22;34544;48.836;9.174;2023-06-05T14:54:16;36.50;53.50
48752;DHT22;34544;48.836;9.174;2023-06-05T14:56:42;36.10;54.50
48752;DHT22;34544;48.836;9.174;2023-06-05T14:59:08;35.40;54.70
48752;DHT22;34544;48.836;9.174;2023-06-05T15:01:33;34.70;54.50
48752;DHT22;34544;48.836;9.174;2023-06-05T15:03:59;33.80;55.20
48752;DHT22;34544;48.836;9.174;2023-06-05T15:06:24;32.90;55.60
48752;DHT22;34544;48.836;9.174;2023-06-05T15:08:50;32.40;57.30
48752;DHT22;34544;48.836;9.174;2023-06-05T15:11:16;32.60;56.20
48752;DHT22;34544;48.836;9.174;2023-06-05T15:13:42;32.80;56.00
48752;DHT22;34544;48.836;9.174;2023-06-05T15:16:07;33.20;56.40
48752;DHT22;34544;48.836;9.174;2023-06-05T15:18:34;33.50;55.20
48752;DHT22;34544;48.836;9.174;2023-06-05T15:20:59;34.00;56.20
48752;DHT22;34544;48.836;9.174;2023-06-05T15:23:25;34.20;55.30
48752;DHT22;34544;48.836;9.174;2023-06-05T15:25:51;34.50;54.80
48752;DHT22;34544;48.836;9.174;2023-06-05T15:28:16;34.70;56.00
48752;DHT22;34544;48.836;9.174;2023-06-05T15:30:43;34.90;55.40
48752;DHT22;34544;48.836;9.174;2023-06-05T15:33:09;34.70;54.50
48752;DHT22;34544;48.836;9.174;2023-06-05T15:35:36;34.60;55.90
48752;DHT22;34544;48.836;9.174;2023-06-05T15:38:08;34.80;55.20
48752;DHT22;34544;48.836;9.174;2023-06-05T15:40:33;34.80;54.80
48752;DHT22;34544;48.836;9.174;2023-06-05T15:43:07;34.90;55.30
48752;DHT22;34544;48.836;9.174;2023-06-05T15:45:34;35.00;55.00
48752;DHT22;34544;48.836;9.174;2023-06-05T15:48:00;35.00;55.30
48752;DHT22;34544;48.836;9.174;2023-06-05T15:50:26;34.90;55.40
48752;DHT22;34544;48.836;9.174;2023-06-05T15:52:51;34.90;55.00
48752;DHT22;34544;48.836;9.174;2023-06-05T15:55:17;35.00;54.50
48752;DHT22;34544;48.836;9.174;2023-06-05T15:57:43;34.60;54.00
48752;DHT22;34544;48.836;9.174;2023-06-05T16:00:11;34.50;54.60
48752;DHT22;34544;48.836;9.174;2023-06-05T16:02:37;34.50;54.80
48752;DHT22;34544;48.836;9.174;2023-06-05T16:05:05;34.50;54.70
48752;DHT22;34544;48.836;9.174;2023-06-05T16:07:31;34.50;55.30
48752;DHT22;34544;48.836;9.174;2023-06-05T16:09:57;34.50;55.20
48752;DHT22;34544;48.836;9.174;2023-06-05T16:12:22;34.40;54.50
48752;DHT22;34544;48.836;9.174;2023-06-05T16:14:48;34.30;55.40
48752;DHT22;34544;48.836;9.174;2023-06-05T16:17:14;34.40;55.10
48752;DHT22;34544;48.836;9.174;2023-06-05T16:19:40;34.40;54.90
48752;DHT22;34544;48.836;9.174;2023-06-05T16:22:05;34.20;54.80
48752;DHT22;34544;48.836;9.174;2023-06-05T16:24:31;34.00;54.40
48752;DHT22;34544;48.836;9.174;2023-06-05T16:26:59;33.80;55.10
48752;DHT22;34544;48.836;9.174;2023-06-05T16:29:25;33.80;55.40
48752;DHT22;34544;48.836;9.174;2023-06-05T16:31:51;33.60;55.30
48752;DHT22;34544;48.836;9.174;2023-06-05T16:34:17;33.50;55.80
48752;DHT22;34544;48.836;9.174;2023-06-05T16:36:42;33.20;54.70